EED weather

Needles Airport
Needles, California, United States

Public forecast

Using degrees Fahrenheit for public forecast. Weather courtesy of forecast.io.

METAR (pilot weather report)

Retrieved 2019/07/23 05:56 UTC (1 hour ago):

KEED 230556Z AUTO 24009KT 10SM CLR 38/14 A2988 RMK AO2 SLP079 T03780144 10428 20378 53015 $

TAF (pilot weather forecast)

Retrieved 2019/07/23 06:22 UTC (36 minutes ago):

TAF KEED 230520Z 2306/2406 22009KT P6SM BKN150 FM230900 15010G18KT P6SM VCSH BKN150 OVC200 FM231300 VRB05KT P6SM BKN150 OVC200 FM231700 15009KT P6SM SCT120 OVC150 FM232100 18012G20KT P6SM VCTS SCT100CB BKN150 FM240100 09011KT P6SM SCT120 BKN150